Monday, December 18, 2017, 5:17 PM EST
Back to Local

KLGA, New York La Guardia Airport

Location: Astoria, NY, United States Lat: 40.783
Local Time: 5:17 PM EST (22:17 GMT) Lon: -73.883
Time Zone: US/Eastern Elev: 22 ft

Show me the last for .
Show Coded

Time T Td Feel RH Dir Speed Gust Alt SLP Vis Weather Sky Remarks
2017-12-18 16:51 46 34 45 62 220° 3 - 29.96 29.96 10 BKN070 OVC250 None
2017-12-18 15:51 46 34 43 62 290° 6 - 29.96 29.96 10 OVC070 None
2017-12-18 14:51 44 35 - 70 - Calm - 29.97 29.97 10 BKN070 BKN250 None
2017-12-18 13:51 44 34 41 67 50° 6 - 29.97 29.97 10 BKN070 None
2017-12-18 12:51 42 35 39 75 50° 5 - 30.01 30.01 10 FEW009 BKN070 6-hr Min Temp (1pm): 36.0°F
6-hr Max Temp (1pm): 43.0°F
2017-12-18 12:39 42 35 38 75 60° 6 - 30.02 - 10 SCT009 BKN070 None
2017-12-18 11:51 40 33 37 76 50° 5 - 30.04 30.04 10 OVC009 None
2017-12-18 11:34 40 32 36 73 60° 6 - 30.05 - 10 OVC009 None
2017-12-18 10:51 39 32 36 75 Variable 5 - 30.09 30.09 10 OVC011 None
2017-12-18 09:51 39 32 33 75 40° 8 - 30.11 30.11 10 OVC011 None
2017-12-18 08:51 37 31 31 78 40° 8 - 30.11 30.11 10 BKN011 OVC047 None
2017-12-18 08:47 37 30 31 74 40° 8 - 30.12 - 10 BKN011 OVC047 None
2017-12-18 08:23 37 31 31 78 50° 8 - 30.11 - 10 SCT011 OVC047 None
2017-12-18 07:51 37 31 31 78 50° 8 - 30.12 30.12 10 OVC011 None
2017-12-18 06:51 36 30 31 78 50° 6 - 30.13 30.13 10 OVC011 6-hr Precip Total (7am): 0.02"
24-hr Precip Total (7am): 0.02"
6-hr Min Temp (7am): 34.0°F
6-hr Max Temp (7am): 37.0°F
2017-12-18 05:51 36 30 29 78 50° 9 - 30.14 30.13 10 BKN013 OVC050 None
2017-12-18 04:58 36 29 30 75 50° 7 - 30.15 - 10 BKN014 OVC050 None
2017-12-18 04:51 35 29 28 78 50° 9 - 30.14 30.14 10 FEW020 BKN045 OVC060 1-hr Precip Total: Trace
2017-12-18 03:51 35 28 29 75 70° 8 - 30.15 30.14 10 -RA FEW020 BKN041 OVC060 1-hr Precip Total: 0.02"
6-hr Precip Total (4am): 0.02"
2017-12-18 03:14 35 26 30 69 90° 6 - 30.17 - 10 -RA SCT018 SCT028 OVC037 1-hr Precip Total: 0.01"
2017-12-18 02:51 35 25 29 66 90° 7 - 30.18 30.18 10 -RA BKN018 OVC027 1-hr Precip Total: Trace
2017-12-18 01:51 35 23 29 61 80° 7 - 30.19 30.19 10 OVC019 None
2017-12-18 00:51 35 24 29 63 80° 7 - 30.19 30.19 10 OVC019 6-hr Min Temp (1am): 35.1°F
6-hr Max Temp (1am): 36.0°F
2017-12-17 23:51 35 24 29 63 90° 7 - 30.20 30.20 10 OVC019 24-hr Min Temp (12am): 33.1°F
24-hr Max Temp (12am): 37.0°F
2017-12-17 22:51 35 24 29 63 80° 8 - 30.22 30.21 10 OVC019 None
2017-12-17 21:51 35 25 29 66 80° 7 - 30.24 30.24 10 OVC019 None
2017-12-17 20:51 35 25 29 66 60° 7 - 30.25 30.25 10 OVC020 None
2017-12-17 20:20 36 25 30 63 80° 8 - 30.25 - 10 BKN024 BKN150 OVC250 None
2017-12-17 19:51 36 25 30 63 80° 7 - 30.27 30.26 10 FEW025 BKN140 BKN250 None
2017-12-17 18:51 36 25 30 63 60° 7 - 30.27 30.27 10 SCT130 OVC250 6-hr Min Temp (7pm): 36.0°F
6-hr Max Temp (7pm): 37.0°F
2017-12-17 17:51 36 25 30 63 60° 7 - 30.25 30.25 10 FEW130 BKN250 None

Support USWX by starting your Amazon purchase here.